createdAt,value
2018-09-13T00:01:06.678Z,91.14
2018-09-13T00:03:36.150Z,92.17
2018-09-13T00:06:05.400Z,92.69
2018-09-13T00:08:34.742Z,92.68
2018-09-13T00:11:04.314Z,92.51
2018-09-13T00:13:33.930Z,92.78
2018-09-13T00:16:03.332Z,92.48
2018-09-13T00:18:32.863Z,91.50
2018-09-13T00:21:02.334Z,92.41
2018-09-13T00:23:31.854Z,92.57
2018-09-13T00:26:01.210Z,92.88
2018-09-13T00:28:30.503Z,92.84
2018-09-13T00:30:59.877Z,92.99
2018-09-13T00:33:29.115Z,93.53
2018-09-13T00:35:58.451Z,92.82
2018-09-13T00:38:27.727Z,93.41
2018-09-13T00:40:58.071Z,93.44
2018-09-13T00:43:27.410Z,94.38
2018-09-13T00:45:56.731Z,93.77
2018-09-13T00:48:26.002Z,93.10
2018-09-13T00:50:55.314Z,93.31
2018-09-13T00:53:24.557Z,94.12
2018-09-13T00:55:53.978Z,94.93
2018-09-13T00:58:23.372Z,94.30
2018-09-13T01:00:52.707Z,94.30
2018-09-13T01:03:22.164Z,93.78
2018-09-13T01:05:51.506Z,94.36
2018-09-13T01:08:21.074Z,94.12
2018-09-13T01:10:50.423Z,94.94
2018-09-13T01:13:19.747Z,94.75
2018-09-13T01:15:49.119Z,94.33
2018-09-13T01:18:18.566Z,95.27
2018-09-13T01:20:47.907Z,94.56
2018-09-13T01:23:17.361Z,95.76
2018-09-13T01:25:46.726Z,96.19
2018-09-13T01:28:16.155Z,94.89
2018-09-13T01:30:45.572Z,95.09
2018-09-13T01:33:14.966Z,94.94
2018-09-13T01:35:44.265Z,95.16
2018-09-13T01:38:13.404Z,96.32
2018-09-13T01:40:42.675Z,95.41
2018-09-13T01:43:11.962Z,95.67
2018-09-13T01:45:41.365Z,94.70
2018-09-13T01:48:11.268Z,94.87
2018-09-13T01:50:40.613Z,94.24
2018-09-13T01:53:09.946Z,95.95
2018-09-13T01:55:40.420Z,95.34
2018-09-13T01:58:09.984Z,96.06
2018-09-13T02:00:39.219Z,95.75
2018-09-13T02:03:08.519Z,95.23
2018-09-13T02:05:37.794Z,95.77
2018-09-13T02:08:07.254Z,96.89
2018-09-13T02:10:36.729Z,95.99
2018-09-13T02:13:06.497Z,96.42
2018-09-13T02:15:35.953Z,96.90
2018-09-13T02:18:05.400Z,96.06
2018-09-13T02:20:35.456Z,95.32
2018-09-13T02:23:04.754Z,95.58
2018-09-13T02:25:34.052Z,96.12
2018-09-13T02:28:03.403Z,96.04
2018-09-13T02:30:32.908Z,97.14
2018-09-13T02:33:02.152Z,98.02
2018-09-13T02:35:31.489Z,97.95
2018-09-13T02:38:00.868Z,97.94
2018-09-13T02:40:31.283Z,97.03
2018-09-13T02:43:00.685Z,96.85
2018-09-13T02:45:30.156Z,97.18
2018-09-13T02:47:59.746Z,96.80
2018-09-13T02:50:29.228Z,97.57
2018-09-13T02:52:58.728Z,97.63
2018-09-13T02:55:28.106Z,97.68
2018-09-13T02:57:57.420Z,97.00
2018-09-13T03:00:26.670Z,97.12
2018-09-13T03:02:56.033Z,97.01
2018-09-13T03:05:25.246Z,97.18
2018-09-13T03:07:54.690Z,97.29
2018-09-13T03:10:24.267Z,95.72
2018-09-13T03:12:53.664Z,97.21
2018-09-13T03:15:22.975Z,96.97
2018-09-13T03:17:52.528Z,97.35
2018-09-13T03:20:22.095Z,97.36
2018-09-13T03:22:51.473Z,98.27
2018-09-13T03:25:20.842Z,97.66
2018-09-13T03:27:50.245Z,97.73
2018-09-13T03:30:19.670Z,97.36
2018-09-13T03:32:49.008Z,98.16
2018-09-13T03:35:18.782Z,97.13
2018-09-13T03:37:48.084Z,97.35
2018-09-13T03:40:17.501Z,96.77
2018-09-13T03:42:46.911Z,97.16
2018-09-13T03:45:16.410Z,97.42
2018-09-13T03:47:45.724Z,97.09
2018-09-13T03:50:15.165Z,97.77
2018-09-13T03:52:45.407Z,97.20
2018-09-13T03:55:14.885Z,97.38
2018-09-13T03:57:44.413Z,98.02
2018-09-13T04:00:13.897Z,98.06
2018-09-13T04:02:43.255Z,98.05
2018-09-13T04:05:14.983Z,98.50
2018-09-13T04:07:44.532Z,98.38
2018-09-13T04:10:13.729Z,98.00
2018-09-13T04:12:43.928Z,98.57
2018-09-13T04:15:13.263Z,98.11
2018-09-13T04:17:42.665Z,97.51
2018-09-13T04:20:11.960Z,97.85
2018-09-13T04:22:41.256Z,98.38
2018-09-13T04:25:10.549Z,97.71
2018-09-13T04:27:39.902Z,98.68
2018-09-13T04:30:09.296Z,98.98
2018-09-13T04:32:39.324Z,98.54
2018-09-13T04:35:08.670Z,98.53
2018-09-13T04:37:37.958Z,97.82
2018-09-13T04:40:07.300Z,97.33
2018-09-13T04:42:36.728Z,97.92
2018-09-13T04:45:06.346Z,99.09
2018-09-13T04:47:35.724Z,99.05
2018-09-13T04:50:05.577Z,98.71
2018-09-13T04:52:35.186Z,98.54
2018-09-13T04:55:04.536Z,98.14
2018-09-13T04:57:34.095Z,98.48
2018-09-13T05:00:03.481Z,98.54
2018-09-13T05:02:32.887Z,98.78
2018-09-13T05:05:02.080Z,98.51
2018-09-13T05:07:31.504Z,98.79
2018-09-13T05:10:00.840Z,98.46
2018-09-13T05:12:30.155Z,98.33
2018-09-13T05:15:00.179Z,98.78
2018-09-13T05:17:29.461Z,98.13
2018-09-13T05:19:58.796Z,97.15
2018-09-13T05:22:28.727Z,96.63
2018-09-13T05:24:58.066Z,93.99
2018-09-13T05:27:27.470Z,89.37
2018-09-13T05:29:57.434Z,83.53
2018-09-13T05:32:26.791Z,84.26
2018-09-13T05:34:56.481Z,83.28
2018-09-13T05:37:25.756Z,78.70
2018-09-13T05:39:55.104Z,78.55
2018-09-13T05:42:24.488Z,83.71
2018-09-13T05:44:53.879Z,86.81
2018-09-13T05:47:23.177Z,88.35
2018-09-13T05:49:52.507Z,89.92
2018-09-13T05:52:21.725Z,90.86
2018-09-13T05:54:51.310Z,89.31
2018-09-13T05:57:20.649Z,89.77
2018-09-13T05:59:49.781Z,90.94
2018-09-13T06:02:19.124Z,91.09
2018-09-13T06:04:48.453Z,89.58
2018-09-13T06:07:17.878Z,90.62
2018-09-13T06:09:47.409Z,90.52
2018-09-13T06:12:17.373Z,91.24
2018-09-13T06:14:47.969Z,90.56
2018-09-13T06:17:17.322Z,89.87
2018-09-13T06:19:46.564Z,89.41
2018-09-13T06:22:20.646Z,88.45
2018-09-13T06:24:50.015Z,87.42
2018-09-13T06:27:19.407Z,86.42
2018-09-13T06:29:48.904Z,87.01
2018-09-13T06:32:18.628Z,86.20
2018-09-13T06:34:47.973Z,87.62
2018-09-13T06:37:17.691Z,86.12
2018-09-13T06:39:47.183Z,83.47
2018-09-13T06:42:16.746Z,82.11
2018-09-13T06:44:46.607Z,82.63
2018-09-13T06:47:15.786Z,81.86
2018-09-13T06:49:46.358Z,81.55
2018-09-13T06:52:15.638Z,81.08
2018-09-13T06:54:45.357Z,79.72
2018-09-13T06:57:14.767Z,80.10
2018-09-13T06:59:44.266Z,79.98
2018-09-13T07:02:13.707Z,80.04
2018-09-13T07:04:43.003Z,77.33
2018-09-13T07:07:12.244Z,78.89
2018-09-13T07:09:41.498Z,79.97
2018-09-13T07:12:10.872Z,81.34
2018-09-13T07:14:40.230Z,80.34
2018-09-13T07:17:09.644Z,76.89
2018-09-13T07:19:39.089Z,79.64
2018-09-13T07:22:08.368Z,78.75
2018-09-13T07:24:37.684Z,76.81
2018-09-13T07:27:07.110Z,74.80
2018-09-13T07:29:36.516Z,74.10
2018-09-13T07:32:05.912Z,75.35
2018-09-13T07:34:35.270Z,76.08
2018-09-13T07:37:04.812Z,77.16
2018-09-13T07:39:35.193Z,73.12
2018-09-13T07:42:04.665Z,73.78
2018-09-13T07:44:34.036Z,72.32
2018-09-13T07:47:03.571Z,70.81
2018-09-13T07:49:34.076Z,71.43
2018-09-13T07:52:04.274Z,70.43
2018-09-13T07:54:33.525Z,69.01
2018-09-13T07:57:02.790Z,70.72
2018-09-13T07:59:32.033Z,70.64
2018-09-13T08:02:01.371Z,68.97
2018-09-13T08:04:30.673Z,67.62
2018-09-13T08:07:00.655Z,67.40
2018-09-13T08:09:29.812Z,67.45
2018-09-13T08:11:59.403Z,66.00
2018-09-13T08:14:29.309Z,66.13
2018-09-13T08:16:58.773Z,65.24
2018-09-13T08:19:28.493Z,64.17
2018-09-13T08:21:57.982Z,64.28
2018-09-13T08:24:27.391Z,64.17
2018-09-13T08:26:56.818Z,62.14
2018-09-13T08:29:27.178Z,62.11
2018-09-13T08:31:56.670Z,63.58
2018-09-13T08:34:26.088Z,60.33
2018-09-13T08:36:55.649Z,60.60
2018-09-13T08:39:25.027Z,60.28
2018-09-13T08:41:54.301Z,57.49
2018-09-13T08:44:24.630Z,58.93
2018-09-13T08:46:53.982Z,57.71
2018-09-13T08:49:23.329Z,57.29
2018-09-13T08:51:52.737Z,59.84
2018-09-13T08:54:22.090Z,58.58
2018-09-13T08:56:51.872Z,55.21
2018-09-13T08:59:21.291Z,57.09
2018-09-13T09:01:50.683Z,58.08
2018-09-13T09:04:20.164Z,56.43
2018-09-13T09:06:49.560Z,53.86
2018-09-13T09:09:19.790Z,51.55
2018-09-13T09:11:49.376Z,51.80
2018-09-13T09:14:19.982Z,51.08
2018-09-13T09:16:49.306Z,52.42
2018-09-13T09:19:19.149Z,51.12
2018-09-13T09:21:48.549Z,48.19
2018-09-13T09:24:17.988Z,47.85
2018-09-13T09:26:47.368Z,48.69
2018-09-13T09:29:16.879Z,48.06
2018-09-13T09:31:46.305Z,47.66
2018-09-13T09:34:15.933Z,50.13
2018-09-13T09:36:45.286Z,50.10
2018-09-13T09:39:15.223Z,47.80
2018-09-13T09:41:44.662Z,47.95
2018-09-13T09:44:14.007Z,48.56
2018-09-13T09:46:43.365Z,49.31
2018-09-13T09:49:12.640Z,49.46
2018-09-13T09:51:41.913Z,46.43
2018-09-13T09:54:11.898Z,46.12
2018-09-13T09:56:41.200Z,47.49
2018-09-13T09:59:10.819Z,48.83
2018-09-13T10:01:45.113Z,47.76
2018-09-13T10:04:14.474Z,49.30
2018-09-13T10:06:44.493Z,46.47
2018-09-13T10:09:13.882Z,47.27
2018-09-13T10:11:43.453Z,46.73
2018-09-13T10:14:12.821Z,46.99
2018-09-13T10:16:47.092Z,46.01
2018-09-13T10:19:21.569Z,43.64
2018-09-13T10:21:56.064Z,45.56
2018-09-13T10:24:30.520Z,44.19
2018-09-13T10:27:04.908Z,42.73
2018-09-13T10:29:39.416Z,43.15
2018-09-13T10:32:14.627Z,43.45
2018-09-13T10:34:49.032Z,42.78
2018-09-13T10:39:26.159Z,41.45
2018-09-13T10:42:00.604Z,42.29
2018-09-13T10:44:35.120Z,43.42
2018-09-13T10:49:12.097Z,44.76
2018-09-13T10:51:46.623Z,44.41
2018-09-13T10:54:25.151Z,43.58
2018-09-13T10:56:54.502Z,46.24
2018-09-13T10:59:25.362Z,43.33
2018-09-13T11:01:55.088Z,43.39
2018-09-13T11:04:24.501Z,42.66
2018-09-13T11:06:53.760Z,42.35
2018-09-13T11:09:22.959Z,41.96
2018-09-13T11:11:52.475Z,41.07
2018-09-13T11:14:25.953Z,41.70
2018-09-13T11:16:55.491Z,41.64
2018-09-13T11:19:24.745Z,40.78
2018-09-13T11:21:54.328Z,42.06
2018-09-13T11:24:23.770Z,39.29
2018-09-13T11:26:53.119Z,39.35
2018-09-13T11:29:22.645Z,40.57
2018-09-13T11:31:52.857Z,39.37
2018-09-13T11:34:22.162Z,40.86
2018-09-13T11:36:52.432Z,41.25
2018-09-13T11:39:22.227Z,41.76
2018-09-13T11:41:53.815Z,40.47
2018-09-13T11:44:24.709Z,42.59
2018-09-13T11:46:53.994Z,40.77
2018-09-13T11:49:23.378Z,40.75
2018-09-13T11:51:53.121Z,40.91
2018-09-13T11:54:22.543Z,39.00
2018-09-13T11:56:52.123Z,39.13
2018-09-13T11:59:21.474Z,37.82
2018-09-13T12:01:51.576Z,38.99
2018-09-13T12:04:20.906Z,40.34
2018-09-13T12:06:50.545Z,40.70
2018-09-13T12:09:20.057Z,39.16
2018-09-13T12:11:49.460Z,38.09
2018-09-13T12:14:19.304Z,38.41
2018-09-13T12:16:48.845Z,38.50
2018-09-13T12:19:18.327Z,36.91
2018-09-13T12:21:47.651Z,36.60
2018-09-13T12:24:17.015Z,38.64
2018-09-13T12:26:46.269Z,39.13
2018-09-13T12:29:15.715Z,39.63
2018-09-13T12:31:45.103Z,38.21
2018-09-13T12:34:15.640Z,36.34
2018-09-13T12:36:46.026Z,39.45
2018-09-13T12:39:16.062Z,39.32
2018-09-13T12:41:45.351Z,37.85
2018-09-13T12:44:14.668Z,37.74
2018-09-13T12:46:44.049Z,37.53
2018-09-13T12:49:14.560Z,35.72
2018-09-13T12:51:44.120Z,37.44
2018-09-13T12:54:13.603Z,37.90
2018-09-13T12:56:43.319Z,35.97
2018-09-13T12:59:12.880Z,36.35
2018-09-13T13:01:43.482Z,38.00
2018-09-13T13:04:14.374Z,39.25
2018-09-13T13:06:43.799Z,38.28
2018-09-13T13:09:13.475Z,38.78
2018-09-13T13:11:42.914Z,37.42
2018-09-13T13:14:12.546Z,39.71
2018-09-13T13:16:42.321Z,40.41
2018-09-13T13:19:11.520Z,42.21
2018-09-13T13:21:40.961Z,41.64
2018-09-13T13:24:10.376Z,42.93
2018-09-13T13:26:39.836Z,42.40
2018-09-13T13:29:09.588Z,42.53
2018-09-13T13:31:38.900Z,38.40
2018-09-13T13:34:09.489Z,40.57
2018-09-13T13:36:38.979Z,38.61
2018-09-13T13:39:09.766Z,37.94
2018-09-13T13:41:40.040Z,36.85
2018-09-13T13:44:09.485Z,36.56
2018-09-13T13:46:39.827Z,37.41
2018-09-13T13:49:09.226Z,38.41
2018-09-13T13:51:38.753Z,37.17
2018-09-13T13:54:08.925Z,36.64
2018-09-13T13:56:38.491Z,36.95
2018-09-13T13:59:08.414Z,37.83
2018-09-13T14:01:38.107Z,36.97
2018-09-13T14:04:07.594Z,37.40
2018-09-13T14:06:37.973Z,37.64
2018-09-13T14:09:10.839Z,37.97
2018-09-13T14:11:40.316Z,38.12
2018-09-13T14:14:09.799Z,38.12
2018-09-13T14:16:40.926Z,37.75
2018-09-13T14:19:11.051Z,38.65
2018-09-13T14:21:40.851Z,39.64
2018-09-13T14:24:10.813Z,39.15
2018-09-13T14:26:41.284Z,38.69
2018-09-13T14:29:10.694Z,39.52
2018-09-13T14:31:41.293Z,40.46
2018-09-13T14:34:11.790Z,39.55
2018-09-13T14:36:42.187Z,39.91
2018-09-13T14:39:12.105Z,42.20
2018-09-13T14:41:42.167Z,42.44
2018-09-13T14:44:11.540Z,42.82
2018-09-13T14:46:41.104Z,41.64
2018-09-13T14:49:10.637Z,41.99
2018-09-13T14:51:40.137Z,42.13
2018-09-13T14:54:09.768Z,41.99
2018-09-13T14:56:39.160Z,41.69
2018-09-13T14:59:09.442Z,42.57
2018-09-13T15:01:38.942Z,43.44
2018-09-13T15:04:10.200Z,44.01
2018-09-13T15:06:40.234Z,42.54
2018-09-13T15:09:13.413Z,42.81
2018-09-13T15:11:42.978Z,44.83
2018-09-13T15:14:12.501Z,42.99
2018-09-13T15:16:42.596Z,44.92
2018-09-13T15:19:13.324Z,45.20
2018-09-13T15:21:44.020Z,44.75
2018-09-13T15:24:14.205Z,45.19
2018-09-13T15:26:43.855Z,46.69
2018-09-13T15:29:13.419Z,46.85
2018-09-13T15:31:43.734Z,47.53
2018-09-13T15:34:13.071Z,46.95
2018-09-13T15:36:42.566Z,46.57
2018-09-13T15:39:13.103Z,48.51
2018-09-13T15:41:42.692Z,47.58
2018-09-13T15:44:13.028Z,44.59
2018-09-13T15:46:42.465Z,46.56
2018-09-13T15:49:12.755Z,45.63
2018-09-13T15:51:42.112Z,46.64
2018-09-13T15:54:11.616Z,47.21
2018-09-13T15:56:42.082Z,48.81
2018-09-13T15:59:11.524Z,51.03
2018-09-13T16:01:40.965Z,49.83
2018-09-13T16:04:10.429Z,50.54
2018-09-13T16:06:39.823Z,51.57
2018-09-13T16:09:09.762Z,56.52
2018-09-13T16:11:39.445Z,62.14
2018-09-13T16:14:09.590Z,62.26
2018-09-13T16:16:38.955Z,66.77
2018-09-13T16:19:08.568Z,68.52
2018-09-13T16:21:38.279Z,68.90
2018-09-13T16:24:08.055Z,69.45
2018-09-13T16:26:37.634Z,70.67
2018-09-13T16:29:07.079Z,72.87
2018-09-13T16:31:36.980Z,76.99
2018-09-13T16:34:07.178Z,75.47
2018-09-13T16:36:38.041Z,77.08
2018-09-13T16:39:28.555Z,77.53
2018-09-13T16:42:03.821Z,79.69
2018-09-13T16:44:47.744Z,78.61
2018-09-13T16:47:29.711Z,76.56
2018-09-13T16:50:00.099Z,76.86
2018-09-13T16:52:30.252Z,77.60
2018-09-13T16:54:59.607Z,80.31
2018-09-13T16:57:29.180Z,79.54
2018-09-13T16:59:58.621Z,81.73
2018-09-13T17:02:28.181Z,76.98
2018-09-13T17:04:57.630Z,75.11
2018-09-13T17:07:27.179Z,72.24
2018-09-13T17:09:56.877Z,75.30
2018-09-13T17:12:26.263Z,76.92
2018-09-13T17:14:56.077Z,77.41
2018-09-13T17:17:25.669Z,78.37
2018-09-13T17:19:55.298Z,79.47
2018-09-13T17:22:24.715Z,79.24
2018-09-13T17:24:54.204Z,80.28
2018-09-13T17:27:23.956Z,80.96
2018-09-13T17:29:53.253Z,81.93
2018-09-13T17:32:22.602Z,81.01
2018-09-13T17:34:51.780Z,82.42
2018-09-13T17:37:22.334Z,80.99
2018-09-13T17:39:51.628Z,80.08
2018-09-13T17:42:21.072Z,76.53
2018-09-13T17:44:50.530Z,76.95
2018-09-13T17:47:21.064Z,75.45
2018-09-13T17:49:50.579Z,78.28
2018-09-13T17:52:19.947Z,76.01
2018-09-13T17:54:49.374Z,76.84
2018-09-13T17:57:18.998Z,76.85
2018-09-13T17:59:54.453Z,78.88
2018-09-13T18:02:26.166Z,82.06
2018-09-13T18:04:56.902Z,83.67
2018-09-13T18:07:27.573Z,83.05
2018-09-13T18:09:57.237Z,80.67
2018-09-13T18:12:26.540Z,82.42
2018-09-13T18:14:57.650Z,83.71
2018-09-13T18:17:28.568Z,85.57
2018-09-13T18:19:58.109Z,84.17
2018-09-13T18:22:28.918Z,85.00
2018-09-13T18:24:58.363Z,87.48
2018-09-13T18:27:27.863Z,87.20
2018-09-13T18:30:00.267Z,88.59
2018-09-13T18:32:30.049Z,90.83
2018-09-13T18:34:59.946Z,88.91
2018-09-13T18:37:30.313Z,88.54
2018-09-13T18:39:59.829Z,88.64
2018-09-13T18:42:29.327Z,90.04
2018-09-13T18:44:59.362Z,90.88
2018-09-13T18:47:28.913Z,90.99
2018-09-13T18:49:59.026Z,92.31
2018-09-13T18:52:29.853Z,95.51
2018-09-13T18:55:00.567Z,94.72
2018-09-13T18:57:30.137Z,92.97
2018-09-13T19:00:00.908Z,90.52
2018-09-13T19:02:31.186Z,92.71
2018-09-13T19:05:04.724Z,96.01
2018-09-13T19:07:34.896Z,96.59
2018-09-13T19:10:04.504Z,99.16
2018-09-13T19:12:33.918Z,98.31
2018-09-13T19:15:03.552Z,95.22
2018-09-13T19:17:33.145Z,96.22
2018-09-13T19:20:03.666Z,96.17
2018-09-13T19:22:34.335Z,94.81
2018-09-13T19:25:03.903Z,94.62
2018-09-13T19:27:33.629Z,95.12
2018-09-13T19:30:04.535Z,94.93
2018-09-13T19:32:34.926Z,95.44
2018-09-13T19:35:05.152Z,96.90
2018-09-13T19:37:34.604Z,98.87
2018-09-13T19:40:03.909Z,97.53
2018-09-13T19:42:33.414Z,98.92
2018-09-13T19:45:03.712Z,98.83
2018-09-13T19:47:33.672Z,98.35
2018-09-13T19:50:03.613Z,96.91
2018-09-13T19:52:34.645Z,97.39
2018-09-13T19:55:04.012Z,96.23
2018-09-13T19:57:36.018Z,96.61
2018-09-13T20:00:06.156Z,99.55
2018-09-13T20:02:37.180Z,97.87
2018-09-13T20:05:06.511Z,99.37
2018-09-13T20:07:36.513Z,100.00
2018-09-13T20:10:05.931Z,100.00
2018-09-13T20:12:35.849Z,100.00
2018-09-13T20:15:05.892Z,100.00
2018-09-13T20:17:35.359Z,97.33
2018-09-13T20:20:05.196Z,97.37
2018-09-13T20:22:34.440Z,99.34
2018-09-13T20:25:03.980Z,99.85
2018-09-13T20:27:34.916Z,100.00
2018-09-13T20:30:05.427Z,98.70
2018-09-13T20:32:35.100Z,98.29
2018-09-13T20:35:04.982Z,99.25
2018-09-13T20:37:34.461Z,100.00
2018-09-13T20:40:04.147Z,99.40
2018-09-13T20:42:34.467Z,99.73
2018-09-13T20:45:04.046Z,100.00
2018-09-13T20:47:33.605Z,100.00
2018-09-13T20:50:03.442Z,100.00
2018-09-13T20:52:33.135Z,100.00
2018-09-13T20:55:04.320Z,100.00
2018-09-13T20:57:34.579Z,100.00
2018-09-13T21:00:04.162Z,100.00
2018-09-13T21:02:33.479Z,100.00
2018-09-13T21:05:02.917Z,100.00
2018-09-13T21:07:32.033Z,100.00
2018-09-13T21:10:01.049Z,100.00
2018-09-13T21:12:30.164Z,100.00
2018-09-13T21:14:59.261Z,100.00
2018-09-13T21:17:28.465Z,100.00
2018-09-13T21:19:57.850Z,100.00
2018-09-13T21:22:26.994Z,100.00
2018-09-13T21:24:56.097Z,100.00
2018-09-13T21:27:25.171Z,100.00
2018-09-13T21:29:54.384Z,100.00
2018-09-13T21:32:23.518Z,100.00
2018-09-13T21:34:52.832Z,100.00
2018-09-13T21:37:22.188Z,100.00
2018-09-13T21:39:51.592Z,100.00
2018-09-13T21:42:20.940Z,100.00
2018-09-13T21:44:50.212Z,100.00
2018-09-13T21:47:19.535Z,100.00
2018-09-13T21:49:49.753Z,100.00
2018-09-13T21:52:19.205Z,100.00
2018-09-13T21:54:48.589Z,100.00
2018-09-13T21:57:17.941Z,100.00
2018-09-13T21:59:47.397Z,100.00
2018-09-13T22:02:17.511Z,100.00
2018-09-13T22:04:47.171Z,100.00
2018-09-13T22:07:16.588Z,100.00
2018-09-13T22:09:46.108Z,100.00
2018-09-13T22:12:15.535Z,100.00
2018-09-13T22:14:44.928Z,100.00
2018-09-13T22:17:14.350Z,100.00
2018-09-13T22:19:43.776Z,100.00
2018-09-13T22:22:13.090Z,100.00
2018-09-13T22:24:42.772Z,100.00
2018-09-13T22:27:12.216Z,100.00
2018-09-13T22:29:41.687Z,100.00
2018-09-13T22:32:10.954Z,100.00
2018-09-13T22:34:40.221Z,100.00
2018-09-13T22:37:09.592Z,100.00
2018-09-13T22:39:38.708Z,100.00
2018-09-13T22:42:08.119Z,100.00
2018-09-13T22:44:42.386Z,100.00
2018-09-13T22:47:12.347Z,100.00
2018-09-13T22:49:42.184Z,100.00
2018-09-13T22:52:11.567Z,100.00
2018-09-13T22:54:40.850Z,100.00
2018-09-13T22:57:10.096Z,100.00
2018-09-13T22:59:39.336Z,100.00
2018-09-13T23:02:09.502Z,100.00
2018-09-13T23:04:38.698Z,100.00
2018-09-13T23:07:08.028Z,100.00
2018-09-13T23:09:37.432Z,100.00
2018-09-13T23:12:06.659Z,100.00
2018-09-13T23:14:36.081Z,100.00
2018-09-13T23:17:05.462Z,100.00
2018-09-13T23:19:35.702Z,100.00
2018-09-13T23:22:06.148Z,100.00
2018-09-13T23:24:35.440Z,100.00
2018-09-13T23:27:04.773Z,100.00
2018-09-13T23:29:34.074Z,100.00
2018-09-13T23:32:03.343Z,100.00
2018-09-13T23:34:32.765Z,100.00
2018-09-13T23:37:02.807Z,100.00
2018-09-13T23:39:32.193Z,100.00
2018-09-13T23:42:01.494Z,100.00
2018-09-13T23:44:30.985Z,100.00
2018-09-13T23:47:00.504Z,100.00
2018-09-13T23:49:30.022Z,100.00
2018-09-13T23:51:59.480Z,100.00
2018-09-13T23:54:28.708Z,100.00
2018-09-13T23:56:58.015Z,100.00
2018-09-13T23:59:27.478Z,100.00
